Strona główna
METAR-TAF:

METAR-TAF

Lotnisko :

Port lotniczy Damaszek

Damaszek, Syria

Szerokość geograficzna: 33-25N, Długość geograficzna: 036-31E, wysokość: 608 m

Aktualna obserwacja pogody

Raport powstał 24 minut temu, godzina 01:00 UTC
Wiatr 7 kt od wschodnio-północny wschód
Temperatura 14°C
Wilgotność 41%
Ciśnienie 1019 hPa
Widzialność 10 km lub więcej
Brak chmur poniżej 1500 m i brak chmur cumulonimbus

METAR: OSDI 050100Z 060007KT CAVOK 14/01 Q1019

czas: 04:24 (01:24 UTC)

Prognoza

Raport powstał 3 godziny i 34 minut temu, godzina 21:50 UTC
Prognoza ważna od 05 godzina 00 UTC do 06 godzina 06 UTC
Wiatr 10 kt od południowy zachód
Widzialność 10 km lub więcej
Brak chmur poniżej 1500 m i brak chmur cumulonimbus
Przejściowo
od 05 godzina 02 UTC do 05 godzina 06 UTC
Wiatr 3 kt z kierunków zmiennych

TAF: OSDI 042150Z 0500/0606 22010KT CAVOK TEMPO 0502/0506 VRB03KT 4000BR

Obserwacja i prognoza pogody dla ponad 4000 lotnisk (raport METAR i TAF).

Dostępne stacje oznaczono żółtymi i czerwonymi punktami na mapie.

Najedź kursorem aby zobaczyć nazwę stacji.

Kliknij aby zobaczyć obserwacje i prognozy pogody.

Aby zmienić mapę: kliknij na zielony przycisk z czarnym krzyżykiem, aby powiększyć; na zielony przycisk z myślnikiem, aby pomniejszyć; na zielone strzałki, aby przejść do map sąsiednich.


METAR-TAF: